^^
Paulen-Weather Station Historical Data
Daily Summary for June 04, 2022 Units:  Metric    English   Both
Daily Weekly Monthly Yearly Custom
  High: Low: Average:
Temperature: 17 °C 12 °C 14.1 °C
Dew Point: 12 °C 8 °C 9.5 °C
Humidity: 80% 66% 73%
Wind Speed: 16km/h 4km/h 9.6km/h
Wind Gust: 15km/h - -
Wind- - SW
Pressure: 1021.91 hPa 1018.02 hPa -
Precipitation: 0 mm    
Historical Graphs
 
 
Tabular Data for June 04, 2022
Time Temperature Dew Point Pressure Wind Wind Speed Wind Gust Humidity Rainfall Rate (Hourly) solar
00:04 15 °C 9 °C 1018.02 hPa N 9 km/h 9 km/h 66% 0 mm 0 W/m2
00:09 15 °C 9 °C 1018.05 hPa N 11 km/h 9 km/h 66% 0 mm 0 W/m2
00:14 15 °C 9 °C 1018.12 hPa N 8 km/h 7 km/h 66% 0 mm 0 W/m2
00:19 15 °C 9 °C 1018.22 hPa N 8 km/h 7 km/h 67% 0 mm 0 W/m2
00:24 15 °C 9 °C 1018.22 hPa N 8 km/h 7 km/h 68% 0 mm 0 W/m2
00:29 15 °C 9 °C 1018.22 hPa NNE 7 km/h 6 km/h 68% 0 mm 0 W/m2
00:34 15 °C 9 °C 1018.25 hPa NNE 9 km/h 8 km/h 67% 0 mm 0 W/m2
00:39 15 °C 9 °C 1018.32 hPa NNE 8 km/h 8 km/h 66% 0 mm 0 W/m2
00:44 15 °C 9 °C 1018.39 hPa N 10 km/h 9 km/h 66% 0 mm 0 W/m2
00:49 15 °C 9 °C 1018.46 hPa N 9 km/h 8 km/h 66% 0 mm 0 W/m2
00:54 15 °C 9 °C 1018.46 hPa N 9 km/h 8 km/h 68% 0 mm 0 W/m2
00:59 14 °C 9 °C 1018.46 hPa N 10 km/h 10 km/h 69% 0 mm 0 W/m2
01:04 14 °C 9 °C 1018.46 hPa NNE 12 km/h 10 km/h 68% 0 mm 0 W/m2
01:09 14 °C 8 °C 1018.46 hPa N 12 km/h 11 km/h 67% 0 mm 0 W/m2
01:14 14 °C 8 °C 1018.35 hPa N 12 km/h 11 km/h 68% 0 mm 0 W/m2
01:19 14 °C 9 °C 1018.35 hPa N 10 km/h 9 km/h 69% 0 mm 0 W/m2
01:24 14 °C 8 °C 1018.42 hPa N 9 km/h 8 km/h 69% 0 mm 0 W/m2
01:29 14 °C 9 °C 1018.42 hPa N 7 km/h 8 km/h 70% 0 mm 0 W/m2
01:34 14 °C 9 °C 1018.46 hPa N 8 km/h 7 km/h 72% 0 mm 0 W/m2
01:39 13 °C 9 °C 1018.46 hPa N 8 km/h 7 km/h 73% 0 mm 0 W/m2
01:44 13 °C 9 °C 1018.46 hPa N 8 km/h 8 km/h 73% 0 mm 0 W/m2
01:49 13 °C 9 °C 1018.52 hPa N 8 km/h 7 km/h 73% 0 mm 0 W/m2
01:54 13 °C 9 °C 1018.49 hPa N 7 km/h 7 km/h 73% 0 mm 0 W/m2
01:59 13 °C 8 °C 1018.49 hPa N 7 km/h 7 km/h 71% 0 mm 0 W/m2
02:04 13 °C 8 °C 1018.49 hPa NNE 8 km/h 8 km/h 70% 0 mm 0 W/m2
02:09 14 °C 8 °C 1018.59 hPa N 11 km/h 10 km/h 69% 0 mm 0 W/m2
02:14 14 °C 8 °C 1018.63 hPa NNE 12 km/h 11 km/h 69% 0 mm 0 W/m2
02:19 14 °C 8 °C 1018.66 hPa NNE 11 km/h 10 km/h 69% 0 mm 0 W/m2
02:24 14 °C 8 °C 1018.66 hPa N 9 km/h 10 km/h 69% 0 mm 0 W/m2
02:29 14 °C 8 °C 1018.73 hPa NNE 7 km/h 6 km/h 69% 0 mm 0 W/m2
02:34 14 °C 8 °C 1018.73 hPa N 7 km/h 8 km/h 69% 0 mm 0 W/m2
02:39 13 °C 8 °C 1018.8 hPa N 10 km/h 9 km/h 69% 0 mm 0 W/m2
02:44 13 °C 8 °C 1018.83 hPa N 9 km/h 9 km/h 70% 0 mm 0 W/m2
02:49 13 °C 8 °C 1018.86 hPa N 7 km/h 7 km/h 73% 0 mm 0 W/m2
02:54 13 °C 9 °C 1018.83 hPa N 8 km/h 9 km/h 76% 0 mm 0 W/m2
02:59 13 °C 9 °C 1018.93 hPa N 10 km/h 10 km/h 77% 0 mm 0 W/m2
03:04 13 °C 9 °C 1019.03 hPa N 10 km/h 9 km/h 77% 0 mm 0 W/m2
03:09 13 °C 9 °C 1019.07 hPa N 9 km/h 9 km/h 78% 0 mm 0 W/m2
03:14 13 °C 9 °C 1019.03 hPa N 9 km/h 9 km/h 78% 0 mm 0 W/m2
03:19 13 °C 9 °C 1019.03 hPa N 7 km/h 7 km/h 79% 0 mm 0 W/m2
03:24 13 °C 9 °C 1019.07 hPa N 9 km/h 9 km/h 79% 0 mm 0 W/m2
03:29 12 °C 9 °C 1019.1 hPa N 9 km/h 9 km/h 80% 0 mm 0 W/m2
03:34 12 °C 9 °C 1019.07 hPa N 8 km/h 8 km/h 80% 0 mm 0 W/m2
03:39 12 °C 9 °C 1019.1 hPa NNE 10 km/h 9 km/h 77% 0 mm 0 W/m2
03:44 12 °C 8 °C 1019.13 hPa N 11 km/h 10 km/h 75% 0 mm 0 W/m2
03:49 13 °C 8 °C 1019.17 hPa N 9 km/h 9 km/h 75% 0 mm 0 W/m2
03:54 12 °C 8 °C 1019.17 hPa N 8 km/h 8 km/h 75% 0 mm 0 W/m2
03:59 12 °C 8 °C 1019.24 hPa N 9 km/h 8 km/h 75% 0 mm 0 W/m2
04:04 12 °C 8 °C 1019.24 hPa N 9 km/h 8 km/h 76% 0 mm 0 W/m2
04:09 12 °C 8 °C 1019.27 hPa N 8 km/h 8 km/h 77% 0 mm 0 W/m2
04:14 12 °C 9 °C 1019.3 hPa N 7 km/h 6 km/h 78% 0 mm 0 W/m2
04:19 12 °C 9 °C 1019.37 hPa N 7 km/h 6 km/h 78% 0 mm 0 W/m2
04:24 12 °C 9 °C 1019.37 hPa N 9 km/h 8 km/h 78% 0 mm 0 W/m2
04:29 12 °C 9 °C 1019.4 hPa N 8 km/h 7 km/h 78% 0 mm 5 W/m2
04:34 12 °C 9 °C 1019.44 hPa N 8 km/h 7 km/h 78% 0 mm 7 W/m2
04:39 12 °C 8 °C 1019.4 hPa N 7 km/h 6 km/h 78% 0 mm 9 W/m2
04:44 12 °C 9 °C 1019.44 hPa N 6 km/h 6 km/h 79% 0 mm 14 W/m2
04:49 12 °C 9 °C 1019.44 hPa N 8 km/h 7 km/h 79% 0 mm 16 W/m2
04:54 12 °C 9 °C 1019.44 hPa N 9 km/h 8 km/h 79% 0 mm 19 W/m2
04:59 12 °C 8 °C 1019.44 hPa N 11 km/h 9 km/h 78% 0 mm 25 W/m2
05:04 12 °C 8 °C 1019.44 hPa N 9 km/h 7 km/h 78% 0 mm 30 W/m2
05:09 12 °C 8 °C 1019.44 hPa N 8 km/h 7 km/h 78% 0 mm 35 W/m2
05:14 12 °C 8 °C 1019.51 hPa N 9 km/h 9 km/h 78% 0 mm 42 W/m2
05:19 12 °C 8 °C 1019.54 hPa N 10 km/h 9 km/h 78% 0 mm 49 W/m2
05:24 12 °C 8 °C 1019.54 hPa N 10 km/h 9 km/h 78% 0 mm 54 W/m2
05:29 12 °C 8 °C 1019.54 hPa N 8 km/h 7 km/h 78% 0 mm 63 W/m2
05:34 12 °C 9 °C 1019.51 hPa N 6 km/h 6 km/h 78% 0 mm 70 W/m2
05:39 12 °C 9 °C 1019.47 hPa N 6 km/h 4 km/h 78% 0 mm 77 W/m2
05:44 12 °C 9 °C 1019.51 hPa N 6 km/h 5 km/h 78% 0 mm 88 W/m2
05:49 13 °C 9 °C 1019.57 hPa N 6 km/h 5 km/h 78% 0 mm 97 W/m2
05:54 13 °C 9 °C 1019.61 hPa N 6 km/h 4 km/h 78% 0 mm 104 W/m2
05:59 13 °C 9 °C 1019.61 hPa N 9 km/h 7 km/h 77% 0 mm 113 W/m2
06:04 13 °C 9 °C 1019.68 hPa N 8 km/h 8 km/h 77% 0 mm 121 W/m2
06:09 13 °C 9 °C 1019.71 hPa N 7 km/h 6 km/h 77% 0 mm 130 W/m2
06:14 13 °C 9 °C 1019.71 hPa N 6 km/h 5 km/h 77% 0 mm 139 W/m2
06:19 13 °C 9 °C 1019.74 hPa N 6 km/h 4 km/h 76% 0 mm 149 W/m2
06:24 13 °C 9 °C 1019.74 hPa N 4 km/h 3 km/h 76% 0 mm 158 W/m2
06:29 13 °C 9 °C 1019.81 hPa N 4 km/h 5 km/h 76% 0 mm 169 W/m2
06:34 13 °C 9 °C 1019.84 hPa N 6 km/h 6 km/h 76% 0 mm 178 W/m2
06:39 13 °C 9 °C 1019.84 hPa N 7 km/h 5 km/h 77% 0 mm 186 W/m2
06:44 13 °C 9 °C 1019.91 hPa N 6 km/h 6 km/h 77% 0 mm 199 W/m2
06:49 13 °C 9 °C 1019.91 hPa N 7 km/h 7 km/h 77% 0 mm 209 W/m2
06:54 13 °C 9 °C 1019.95 hPa N 8 km/h 7 km/h 77% 0 mm 218 W/m2
06:59 13 °C 10 °C 1020.01 hPa N 8 km/h 8 km/h 77% 0 mm 230 W/m2
07:04 13 °C 9 °C 1020.01 hPa N 9 km/h 8 km/h 76% 0 mm 241 W/m2
07:09 13 °C 10 °C 1020.05 hPa N 10 km/h 8 km/h 77% 0 mm 250 W/m2
07:14 14 °C 10 °C 1020.15 hPa N 7 km/h 5 km/h 77% 0 mm 262 W/m2
07:19 14 °C 10 °C 1020.18 hPa N 8 km/h 6 km/h 78% 0 mm 272 W/m2
07:24 14 °C 10 °C 1020.25 hPa N 8 km/h 7 km/h 78% 0 mm 283 W/m2
07:29 14 °C 10 °C 1020.32 hPa N 12 km/h 13 km/h 77% 0 mm 295 W/m2
07:34 14 °C 9 °C 1020.35 hPa N 15 km/h 13 km/h 73% 0 mm 306 W/m2
07:39 14 °C 9 °C 1020.35 hPa N 14 km/h 13 km/h 72% 0 mm 316 W/m2
07:44 14 °C 9 °C 1020.32 hPa N 12 km/h 10 km/h 73% 0 mm 329 W/m2
07:49 14 °C 10 °C 1020.35 hPa N 11 km/h 10 km/h 73% 0 mm 338 W/m2
07:54 14 °C 9 °C 1020.35 hPa N 10 km/h 9 km/h 72% 0 mm 350 W/m2
07:59 14 °C 9 °C 1020.45 hPa N 11 km/h 10 km/h 71% 0 mm 360 W/m2
08:04 14 °C 10 °C 1020.49 hPa N 12 km/h 10 km/h 73% 0 mm 371 W/m2
08:09 15 °C 10 °C 1020.62 hPa N 12 km/h 10 km/h 71% 0 mm 381 W/m2
08:14 15 °C 10 °C 1020.73 hPa N 10 km/h 9 km/h 70% 0 mm 394 W/m2
08:19 15 °C 10 °C 1020.83 hPa N 10 km/h 9 km/h 70% 0 mm 404 W/m2
08:24 15 °C 10 °C 1020.86 hPa N 8 km/h 7 km/h 71% 0 mm 415 W/m2
08:29 15 °C 10 °C 1020.93 hPa N 8 km/h 7 km/h 71% 0 mm 427 W/m2
08:34 15 °C 10 °C 1021 hPa N 7 km/h 7 km/h 71% 0 mm 438 W/m2
08:39 16 °C 10 °C 1021.03 hPa N 5 km/h 4 km/h 70% 0 mm 448 W/m2
08:44 16 °C 10 °C 1021.03 hPa ESE 5 km/h 3 km/h 67% 0 mm 461 W/m2
08:49 16 °C 11 °C 1021.03 hPa N 5 km/h 3 km/h 67% 0 mm 471 W/m2
08:54 17 °C 11 °C 1021.06 hPa N 10 km/h 11 km/h 68% 0 mm 482 W/m2
08:59 16 °C 11 °C 1021.06 hPa N 10 km/h 9 km/h 69% 0 mm 492 W/m2
09:04 16 °C 11 °C 1021.06 hPa WNW 12 km/h 11 km/h 69% 0 mm 503 W/m2
09:09 16 °C 11 °C 1021 hPa NW 13 km/h 11 km/h 70% 0 mm 512 W/m2
09:14 16 °C 10 °C 1021.13 hPa WNW 15 km/h 12 km/h 70% 0 mm 524 W/m2
09:19 16 °C 10 °C 1021.17 hPa NNW 12 km/h 9 km/h 70% 0 mm 533 W/m2
09:24 16 °C 10 °C 1021.17 hPa NNW 13 km/h 11 km/h 69% 0 mm 541 W/m2
09:29 16 °C 11 °C 1021.2 hPa NW 12 km/h 10 km/h 70% 0 mm 552 W/m2
09:34 16 °C 11 °C 1021.27 hPa WNW 12 km/h 9 km/h 70% 0 mm 563 W/m2
09:39 16 °C 11 °C 1021.27 hPa NW 11 km/h 9 km/h 70% 0 mm 571 W/m2
09:44 16 °C 11 °C 1021.33 hPa W 11 km/h 9 km/h 70% 0 mm 582 W/m2
09:49 16 °C 10 °C 1021.3 hPa W 11 km/h 9 km/h 70% 0 mm 585 W/m2
09:54 16 °C 10 °C 1021.3 hPa WNW 10 km/h 9 km/h 70% 0 mm 566 W/m2
09:59 16 °C 11 °C 1021.33 hPa NW 10 km/h 9 km/h 71% 0 mm 585 W/m2
10:04 16 °C 11 °C 1021.37 hPa W 12 km/h 10 km/h 71% 0 mm 605 W/m2
10:09 16 °C 11 °C 1021.47 hPa WNW 11 km/h 9 km/h 72% 0 mm 613 W/m2
10:14 16 °C 11 °C 1021.57 hPa W 11 km/h 10 km/h 72% 0 mm 636 W/m2
10:19 16 °C 11 °C 1021.57 hPa WNW 12 km/h 10 km/h 72% 0 mm 645 W/m2
10:24 16 °C 11 °C 1021.61 hPa NNW 12 km/h 10 km/h 72% 0 mm 650 W/m2
10:29 16 °C 11 °C 1021.64 hPa W 12 km/h 11 km/h 72% 0 mm 659 W/m2
10:34 16 °C 11 °C 1021.64 hPa NW 13 km/h 11 km/h 72% 0 mm 666 W/m2
10:39 16 °C 11 °C 1021.61 hPa W 13 km/h 11 km/h 72% 0 mm 675 W/m2
10:44 16 °C 11 °C 1021.67 hPa NW 14 km/h 13 km/h 71% 0 mm 680 W/m2
10:49 16 °C 11 °C 1021.71 hPa NW 12 km/h 10 km/h 72% 0 mm 687 W/m2
10:54 16 °C 11 °C 1021.74 hPa NNW 10 km/h 9 km/h 72% 0 mm 694 W/m2
10:59 16 °C 11 °C 1021.81 hPa NNW 8 km/h 8 km/h 73% 0 mm 703 W/m2
11:04 16 °C 11 °C 1021.84 hPa WNW 11 km/h 9 km/h 72% 0 mm 708 W/m2
11:09 16 °C 11 °C 1021.84 hPa WNW 12 km/h 10 km/h 71% 0 mm 715 W/m2
11:14 16 °C 11 °C 1021.81 hPa WNW 12 km/h 10 km/h 70% 0 mm 722 W/m2
11:19 16 °C 11 °C 1021.84 hPa WNW 9 km/h 9 km/h 71% 0 mm 728 W/m2
11:24 16 °C 11 °C 1021.84 hPa WNW 12 km/h 11 km/h 71% 0 mm 731 W/m2
11:29 16 °C 11 °C 1021.91 hPa NNW 13 km/h 12 km/h 71% 0 mm 738 W/m2
11:34 15 °C 11 °C 1021.88 hPa WNW 14 km/h 11 km/h 72% 0 mm 744 W/m2
11:39 15 °C 11 °C 1021.84 hPa NW 14 km/h 11 km/h 73% 0 mm 749 W/m2
11:44 15 °C 11 °C 1021.88 hPa NW 12 km/h 11 km/h 74% 0 mm 756 W/m2
11:49 15 °C 11 °C 1021.88 hPa ENE 13 km/h 11 km/h 74% 0 mm 758 W/m2
11:54 16 °C 11 °C 1021.84 hPa NE 12 km/h 11 km/h 75% 0 mm 765 W/m2
11:59 16 °C 11 °C 1021.78 hPa NNE 11 km/h 12 km/h 74% 0 mm 770 W/m2
12:04 16 °C 11 °C 1021.78 hPa NNE 15 km/h 12 km/h 74% 0 mm 772 W/m2
12:09 16 °C 11 °C 1021.71 hPa NNE 14 km/h 11 km/h 75% 0 mm 777 W/m2
12:14 16 °C 11 °C 1021.67 hPa E 13 km/h 12 km/h 76% 0 mm 780 W/m2
12:19 16 °C 12 °C 1021.64 hPa ENE 14 km/h 11 km/h 77% 0 mm 782 W/m2
12:24 16 °C 12 °C 1021.64 hPa N 12 km/h 10 km/h 77% 0 mm 786 W/m2
12:29 16 °C 12 °C 1021.67 hPa N 16 km/h 15 km/h 77% 0 mm 788 W/m2
12:34 16 °C 12 °C 1021.74 hPa N 16 km/h 14 km/h 77% 0 mm 791 W/m2
Compliments of Weather Underground - 2 mb